createdAt,value
2018-11-26T00:02:28.223Z,93.50
2018-11-26T00:05:17.232Z,93.70
2018-11-26T00:08:06.702Z,93.50
2018-11-26T00:11:14.789Z,93.50
2018-11-26T00:13:56.053Z,93.80
2018-11-26T00:16:38.108Z,93.60
2018-11-26T00:19:19.796Z,93.80
2018-11-26T00:22:01.079Z,93.70
2018-11-26T00:24:42.894Z,93.50
2018-11-26T00:27:24.302Z,93.50
2018-11-26T00:30:05.708Z,93.40
2018-11-26T00:32:47.453Z,93.50
2018-11-26T00:35:29.249Z,93.60
2018-11-26T00:38:10.717Z,93.70
2018-11-26T00:40:52.597Z,93.60
2018-11-26T00:43:34.050Z,93.70
2018-11-26T00:46:15.854Z,93.40
2018-11-26T00:48:58.228Z,93.40
2018-11-26T00:51:40.210Z,93.50
2018-11-26T00:54:21.564Z,93.50
2018-11-26T00:57:03.724Z,93.50
2018-11-26T00:59:45.541Z,93.50
2018-11-26T01:02:27.320Z,93.80
2018-11-26T01:05:09.228Z,93.50
2018-11-26T01:07:51.250Z,93.40
2018-11-26T01:10:33.333Z,93.50
2018-11-26T01:13:14.767Z,93.50
2018-11-26T01:15:56.691Z,93.30
2018-11-26T01:18:38.519Z,93.30
2018-11-26T01:21:20.592Z,93.40
2018-11-26T01:24:01.995Z,93.50
2018-11-26T01:26:44.108Z,93.30
2018-11-26T01:29:25.457Z,93.30
2018-11-26T01:32:06.785Z,93.40
2018-11-26T01:34:48.125Z,93.30
2018-11-26T01:37:29.399Z,93.20
2018-11-26T01:40:11.442Z,93.30
2018-11-26T01:42:53.451Z,93.40
2018-11-26T01:45:35.092Z,93.40
2018-11-26T01:48:17.041Z,93.20
2018-11-26T01:50:58.809Z,93.00
2018-11-26T01:53:40.883Z,93.10
2018-11-26T01:56:22.944Z,93.20
2018-11-26T01:59:04.550Z,93.20
2018-11-26T02:01:46.172Z,93.20
2018-11-26T02:04:27.741Z,93.20
2018-11-26T02:07:09.987Z,93.20
2018-11-26T02:09:51.253Z,93.20
2018-11-26T02:12:31.216Z,93.30
2018-11-26T02:15:40.223Z,93.30
2018-11-26T02:18:29.010Z,93.20
2018-11-26T02:24:26.073Z,93.30
2018-11-26T02:27:14.757Z,93.50
2018-11-26T02:30:03.587Z,93.40
2018-11-26T02:32:52.742Z,93.50
2018-11-26T02:35:41.516Z,93.50
2018-11-26T02:38:30.495Z,93.60
2018-11-26T02:41:19.229Z,93.60
2018-11-26T02:44:07.965Z,93.60
2018-11-26T02:46:56.665Z,93.60
2018-11-26T02:49:45.436Z,93.60
2018-11-26T02:52:34.291Z,93.60
2018-11-26T02:58:32.052Z,93.60
2018-11-26T03:01:20.858Z,93.80
2018-11-26T03:04:09.760Z,93.80
2018-11-26T03:06:58.723Z,94.00
2018-11-26T03:09:48.096Z,94.00
2018-11-26T03:12:37.004Z,94.00
2018-11-26T03:15:26.468Z,94.10
2018-11-26T03:18:15.161Z,94.10
2018-11-26T03:21:04.041Z,94.00
2018-11-26T03:23:53.106Z,93.90
2018-11-26T03:29:56.438Z,94.00
2018-11-26T03:32:45.378Z,94.00
2018-11-26T03:35:34.394Z,94.00
2018-11-26T03:38:42.672Z,94.10
2018-11-26T03:41:12.254Z,94.10
2018-11-26T03:43:42.007Z,93.80
2018-11-26T03:46:11.627Z,94.00
2018-11-26T03:48:41.088Z,93.80
2018-11-26T03:51:10.884Z,93.90
2018-11-26T03:53:40.473Z,93.80
2018-11-26T03:56:56.079Z,93.90
2018-11-26T03:59:26.227Z,93.90
2018-11-26T04:01:55.929Z,93.90
2018-11-26T04:04:25.668Z,94.00
2018-11-26T04:06:55.237Z,93.90
2018-11-26T04:09:24.914Z,93.90
2018-11-26T04:11:54.630Z,94.00
2018-11-26T04:14:24.385Z,94.10
2018-11-26T04:16:54.159Z,94.20
2018-11-26T04:19:23.905Z,94.20
2018-11-26T04:21:53.698Z,94.50
2018-11-26T04:24:23.315Z,94.50
2018-11-26T04:26:53.048Z,94.70
2018-11-26T04:29:22.726Z,94.70
2018-11-26T04:31:52.325Z,94.80
2018-11-26T04:34:22.146Z,94.70
2018-11-26T04:36:51.833Z,95.10
2018-11-26T04:39:21.542Z,94.80
2018-11-26T04:41:51.477Z,94.70
2018-11-26T04:44:21.230Z,94.80
2018-11-26T04:46:53.437Z,95.20
2018-11-26T04:49:23.571Z,95.00
2018-11-26T04:51:53.153Z,95.30
2018-11-26T04:54:23.026Z,95.30
2018-11-26T04:56:52.795Z,95.30
2018-11-26T04:59:25.091Z,95.30
2018-11-26T05:01:54.834Z,95.50
2018-11-26T05:04:24.539Z,95.40
2018-11-26T05:06:54.084Z,95.30
2018-11-26T05:09:24.018Z,95.20
2018-11-26T05:11:53.774Z,95.30
2018-11-26T05:14:23.648Z,95.20
2018-11-26T05:16:53.385Z,95.10
2018-11-26T05:19:22.941Z,95.30
2018-11-26T05:21:53.006Z,94.90
2018-11-26T05:24:22.640Z,95.30
2018-11-26T05:26:52.535Z,95.40
2018-11-26T05:29:22.311Z,95.10
2018-11-26T05:31:52.056Z,95.30
2018-11-26T05:34:21.800Z,94.90
2018-11-26T05:36:51.524Z,95.20
2018-11-26T05:39:21.213Z,94.90
2018-11-26T05:41:51.095Z,94.90
2018-11-26T05:44:20.798Z,95.00
2018-11-26T05:46:50.415Z,95.00
2018-11-26T05:49:19.994Z,94.90
2018-11-26T05:51:49.728Z,94.90
2018-11-26T05:54:19.664Z,95.00
2018-11-26T05:56:49.358Z,95.00
2018-11-26T05:59:19.319Z,95.00
2018-11-26T06:01:49.068Z,95.00
2018-11-26T06:04:18.763Z,94.90
2018-11-26T06:06:48.606Z,95.10
2018-11-26T06:09:18.025Z,95.10
2018-11-26T06:11:47.746Z,95.30
2018-11-26T06:14:17.469Z,95.00
2018-11-26T06:16:53.487Z,94.90
2018-11-26T06:19:17.057Z,95.10
2018-11-26T06:21:46.772Z,95.10
2018-11-26T06:24:16.533Z,95.30
2018-11-26T06:26:46.013Z,95.10
2018-11-26T06:29:15.892Z,94.80
2018-11-26T06:31:45.594Z,94.90
2018-11-26T06:34:15.525Z,95.20
2018-11-26T06:36:45.209Z,95.50
2018-11-26T06:39:15.028Z,95.10
2018-11-26T06:41:44.788Z,95.10
2018-11-26T06:44:14.465Z,94.90
2018-11-26T06:46:44.295Z,95.10
2018-11-26T06:49:14.018Z,95.00
2018-11-26T06:51:43.662Z,95.40
2018-11-26T06:54:13.362Z,95.20
2018-11-26T06:56:43.104Z,95.10
2018-11-26T06:59:12.941Z,94.90
2018-11-26T07:01:42.845Z,95.20
2018-11-26T07:04:12.662Z,95.00
2018-11-26T07:06:42.409Z,95.00
2018-11-26T07:09:12.150Z,94.60
2018-11-26T07:11:41.984Z,94.70
2018-11-26T07:14:11.757Z,95.20
2018-11-26T07:16:41.391Z,94.70
2018-11-26T07:19:11.057Z,94.80
2018-11-26T07:21:40.850Z,94.80
2018-11-26T07:24:10.368Z,95.30
2018-11-26T07:26:40.156Z,95.30
2018-11-26T07:29:09.899Z,95.30
2018-11-26T07:31:39.760Z,95.20
2018-11-26T07:34:09.382Z,95.00
2018-11-26T07:36:39.108Z,95.00
2018-11-26T07:39:09.509Z,95.10
2018-11-26T07:41:39.202Z,95.00
2018-11-26T07:44:10.145Z,95.10
2018-11-26T07:46:40.007Z,94.80
2018-11-26T07:49:09.741Z,95.00
2018-11-26T07:51:39.431Z,94.90
2018-11-26T07:54:09.077Z,95.00
2018-11-26T07:56:38.996Z,95.00
2018-11-26T07:59:08.785Z,94.70
2018-11-26T08:01:38.313Z,94.80
2018-11-26T08:04:08.069Z,94.60
2018-11-26T08:06:37.796Z,94.60
2018-11-26T08:09:08.787Z,94.50
2018-11-26T08:11:38.554Z,94.70
2018-11-26T08:14:08.223Z,94.50
2018-11-26T08:16:38.125Z,94.30
2018-11-26T08:19:07.844Z,94.40
2018-11-26T08:21:37.468Z,94.40
2018-11-26T08:24:07.201Z,94.70
2018-11-26T08:26:37.006Z,94.80
2018-11-26T08:29:06.994Z,94.80
2018-11-26T08:31:36.722Z,94.70
2018-11-26T08:34:06.617Z,94.50
2018-11-26T08:36:41.570Z,94.80
2018-11-26T08:39:16.759Z,94.80
2018-11-26T08:41:51.869Z,94.90
2018-11-26T08:44:56.273Z,95.00
2018-11-26T08:47:31.428Z,94.90
2018-11-26T08:50:01.244Z,94.90
2018-11-26T08:52:30.866Z,95.20
2018-11-26T08:55:00.566Z,95.30
2018-11-26T08:57:30.194Z,95.00
2018-11-26T08:59:59.871Z,94.70
2018-11-26T09:02:33.345Z,94.80
2018-11-26T09:05:08.292Z,94.80
2018-11-26T09:07:37.948Z,94.80
2018-11-26T09:10:08.666Z,95.10
2018-11-26T09:12:38.366Z,95.40
2018-11-26T09:15:09.013Z,95.10
2018-11-26T09:17:38.903Z,95.00
2018-11-26T09:20:10.373Z,95.20
2018-11-26T09:22:40.148Z,94.80
2018-11-26T09:25:12.180Z,94.60
2018-11-26T09:27:41.823Z,94.80
2018-11-26T09:30:14.364Z,94.90
2018-11-26T09:32:44.251Z,94.60
2018-11-26T09:35:16.029Z,94.80
2018-11-26T09:37:45.761Z,94.70
2018-11-26T09:40:16.715Z,94.60
2018-11-26T09:42:46.413Z,94.90
2018-11-26T09:45:18.318Z,95.00
2018-11-26T09:47:47.836Z,95.10
2018-11-26T09:50:19.917Z,95.20
2018-11-26T09:52:49.716Z,95.00
2018-11-26T09:55:19.558Z,95.00
2018-11-26T09:57:49.259Z,94.70
2018-11-26T10:00:20.195Z,94.60
2018-11-26T10:02:51.035Z,95.00
2018-11-26T10:05:22.596Z,95.10
2018-11-26T10:07:52.800Z,95.10
2018-11-26T10:10:22.562Z,94.90
2018-11-26T10:12:52.514Z,95.10
2018-11-26T10:15:25.225Z,94.80
2018-11-26T10:17:55.413Z,94.70
2018-11-26T10:20:25.345Z,94.70
2018-11-26T10:22:55.141Z,94.60
2018-11-26T10:25:24.877Z,94.90
2018-11-26T10:27:55.235Z,94.70
2018-11-26T10:30:25.420Z,94.70
2018-11-26T10:32:55.124Z,94.60
2018-11-26T10:35:25.332Z,94.40
2018-11-26T10:37:55.018Z,94.80
2018-11-26T10:40:25.998Z,94.90
2018-11-26T10:42:55.615Z,94.90
2018-11-26T10:45:25.887Z,94.80
2018-11-26T10:47:55.721Z,94.70
2018-11-26T10:50:26.474Z,94.80
2018-11-26T10:52:57.383Z,94.80
2018-11-26T10:55:32.676Z,95.00
2018-11-26T10:58:02.672Z,94.90
2018-11-26T11:00:38.486Z,94.50
2018-11-26T11:03:08.427Z,94.80
2018-11-26T11:05:38.545Z,94.70
2018-11-26T11:08:08.501Z,94.70
2018-11-26T11:10:38.816Z,94.80
2018-11-26T11:13:08.635Z,94.80
2018-11-26T11:15:38.368Z,94.50
2018-11-26T11:18:08.665Z,95.10
2018-11-26T11:20:38.700Z,94.80
2018-11-26T11:23:09.189Z,95.00
2018-11-26T11:25:38.958Z,94.90
2018-11-26T11:28:08.923Z,95.10
2018-11-26T11:30:38.645Z,94.90
2018-11-26T11:35:36.998Z,95.10
2018-11-26T11:38:06.867Z,95.10
2018-11-26T11:40:36.445Z,95.20
2018-11-26T11:43:06.497Z,95.00
2018-11-26T11:45:36.327Z,95.00
2018-11-26T11:48:06.687Z,95.10
2018-11-26T11:50:36.269Z,94.70
2018-11-26T11:53:06.482Z,94.60
2018-11-26T11:55:36.220Z,94.90
2018-11-26T11:58:05.821Z,95.10
2018-11-26T12:00:39.263Z,95.10
2018-11-26T12:03:15.451Z,95.10
2018-11-26T12:05:45.219Z,95.20
2018-11-26T12:08:15.402Z,95.00
2018-11-26T12:10:45.380Z,95.00
2018-11-26T12:13:15.856Z,95.10
2018-11-26T12:15:49.010Z,95.30
2018-11-26T12:18:18.751Z,95.20
2018-11-26T12:20:48.629Z,95.40
2018-11-26T12:23:18.148Z,95.10
2018-11-26T12:25:48.106Z,95.10
2018-11-26T12:28:17.971Z,95.00
2018-11-26T12:30:47.816Z,95.20
2018-11-26T12:33:17.568Z,95.00
2018-11-26T12:35:47.555Z,95.10
2018-11-26T12:38:17.253Z,95.10
2018-11-26T12:40:47.061Z,95.20
2018-11-26T12:43:16.738Z,95.30
2018-11-26T12:45:46.439Z,95.00
2018-11-26T12:48:16.140Z,95.00
2018-11-26T12:50:45.811Z,95.00
2018-11-26T12:53:15.677Z,95.10
2018-11-26T12:55:45.301Z,95.00
2018-11-26T12:58:15.007Z,95.10
2018-11-26T13:00:44.694Z,95.00
2018-11-26T13:03:14.698Z,95.40
2018-11-26T13:05:44.686Z,95.00
2018-11-26T13:08:14.502Z,95.10
2018-11-26T13:10:44.482Z,95.40
2018-11-26T13:13:14.112Z,95.40
2018-11-26T13:15:43.745Z,95.10
2018-11-26T13:18:13.691Z,95.40
2018-11-26T13:20:43.529Z,95.60
2018-11-26T13:23:13.263Z,95.40
2018-11-26T13:25:43.043Z,95.30
2018-11-26T13:28:12.762Z,95.30
2018-11-26T13:30:45.994Z,95.30
2018-11-26T13:33:16.823Z,95.80
2018-11-26T13:35:47.715Z,95.60
2018-11-26T13:38:17.441Z,95.30
2018-11-26T13:40:47.194Z,95.60
2018-11-26T13:43:18.131Z,95.40
2018-11-26T13:45:49.198Z,95.40
2018-11-26T13:48:20.030Z,95.40
2018-11-26T13:50:52.735Z,95.50
2018-11-26T13:53:22.608Z,95.80
2018-11-26T13:55:52.224Z,95.70
2018-11-26T13:58:22.135Z,95.60
2018-11-26T14:00:51.760Z,95.60
2018-11-26T14:03:21.556Z,95.60
2018-11-26T14:05:51.413Z,95.80
2018-11-26T14:08:21.352Z,96.00
2018-11-26T14:10:51.333Z,95.60
2018-11-26T14:13:21.063Z,95.80
2018-11-26T14:15:50.649Z,95.90
2018-11-26T14:18:20.282Z,95.60
2018-11-26T14:20:49.949Z,95.80
2018-11-26T14:23:19.842Z,95.80
2018-11-26T14:26:05.143Z,95.90
2018-11-26T15:54:51.524Z,96.10
2018-11-26T15:57:21.191Z,96.50
2018-11-26T15:59:50.810Z,96.10
2018-11-26T16:02:20.522Z,96.30
2018-11-26T16:04:50.116Z,96.30
2018-11-26T16:07:19.848Z,96.30
2018-11-26T16:09:49.584Z,96.10
2018-11-26T16:12:19.272Z,95.90
2018-11-26T16:14:48.887Z,95.80
2018-11-26T16:17:18.416Z,95.60
2018-11-26T16:19:48.507Z,95.70
2018-11-26T16:22:17.950Z,95.30
2018-11-26T16:24:47.506Z,95.50
2018-11-26T16:27:17.325Z,95.80
2018-11-26T16:29:46.821Z,95.80
2018-11-26T16:32:16.470Z,95.60
2018-11-26T16:34:46.033Z,95.90
2018-11-26T16:37:15.895Z,96.30
2018-11-26T16:39:45.594Z,96.30
2018-11-26T16:42:15.183Z,96.30
2018-11-26T16:44:44.748Z,96.30
2018-11-26T16:47:14.520Z,96.40
2018-11-26T16:49:44.021Z,96.30
2018-11-26T16:52:13.580Z,96.70
2018-11-26T16:54:43.028Z,96.30
2018-11-26T16:57:12.714Z,96.10
2018-11-26T16:59:42.357Z,96.00
2018-11-26T17:02:12.315Z,95.80
2018-11-26T17:04:41.940Z,95.90
2018-11-26T17:07:11.679Z,95.60
2018-11-26T17:09:41.512Z,95.70
2018-11-26T17:12:11.356Z,95.60
2018-11-26T17:14:41.630Z,95.70
2018-11-26T17:17:11.560Z,95.70
2018-11-26T17:19:45.633Z,95.80
2018-11-26T17:22:11.142Z,95.80
2018-11-26T17:24:40.771Z,96.10
2018-11-26T17:27:10.576Z,95.70
2018-11-26T17:29:40.402Z,95.70
2018-11-26T17:32:10.308Z,95.70
2018-11-26T17:34:40.203Z,95.70
2018-11-26T17:37:10.188Z,95.80
2018-11-26T17:39:40.408Z,95.70
2018-11-26T17:42:09.951Z,95.40
2018-11-26T17:44:39.918Z,95.40
2018-11-26T17:47:09.967Z,95.60
2018-11-26T17:49:40.005Z,95.90
2018-11-26T17:52:09.817Z,95.80
2018-11-26T17:54:39.398Z,95.70
2018-11-26T17:57:09.250Z,95.70
2018-11-26T17:59:39.073Z,95.50
2018-11-26T18:02:08.620Z,95.60
2018-11-26T18:04:38.261Z,95.50
2018-11-26T18:07:07.981Z,95.40
2018-11-26T18:09:37.796Z,95.40
2018-11-26T18:12:07.944Z,95.50
2018-11-26T18:14:40.292Z,95.60
2018-11-26T18:17:10.168Z,95.80
2018-11-26T18:19:39.847Z,95.80
2018-11-26T18:22:09.944Z,95.60
2018-11-26T18:24:39.951Z,95.60
2018-11-26T18:27:10.188Z,95.60
2018-11-26T18:29:39.862Z,95.70
2018-11-26T18:32:09.622Z,95.30
2018-11-26T18:34:39.477Z,95.60
2018-11-26T18:37:09.355Z,95.60
2018-11-26T18:39:39.084Z,95.40
2018-11-26T18:42:08.594Z,95.10
2018-11-26T18:44:38.844Z,95.20
2018-11-26T18:47:08.547Z,95.10
2018-11-26T18:49:38.207Z,95.20
2018-11-26T18:52:07.944Z,95.50
2018-11-26T18:54:38.220Z,95.40
2018-11-26T18:57:08.037Z,95.50
2018-11-26T18:59:37.478Z,95.60
2018-11-26T19:02:07.196Z,95.80
2018-11-26T19:04:37.019Z,95.70
2018-11-26T19:07:06.816Z,95.50
2018-11-26T19:09:36.590Z,95.80
2018-11-26T19:12:06.809Z,95.90
2018-11-26T19:14:36.346Z,95.90
2018-11-26T19:17:06.474Z,96.10
2018-11-26T19:19:41.967Z,96.00
2018-11-26T19:22:06.360Z,95.80
2018-11-26T19:24:35.923Z,95.90
2018-11-26T19:27:05.667Z,95.80
2018-11-26T19:29:35.391Z,95.90
2018-11-26T19:32:05.028Z,95.70
2018-11-26T19:34:34.460Z,95.70
2018-11-26T19:37:04.156Z,95.70
2018-11-26T19:39:33.928Z,95.80
2018-11-26T19:42:03.621Z,95.80
2018-11-26T19:44:33.237Z,95.80
2018-11-26T19:47:02.752Z,95.60
2018-11-26T19:49:32.332Z,95.50
2018-11-26T19:52:01.998Z,95.60
2018-11-26T19:54:31.840Z,95.70
2018-11-26T19:57:01.550Z,95.60
2018-11-26T19:59:31.163Z,95.50
2018-11-26T20:02:00.726Z,95.50
2018-11-26T20:04:33.319Z,95.80
2018-11-26T20:07:03.100Z,95.80
2018-11-26T20:09:32.804Z,95.50
2018-11-26T20:12:02.472Z,95.60
2018-11-26T20:14:32.170Z,95.60
2018-11-26T20:17:01.666Z,95.70
2018-11-26T20:19:31.229Z,95.50
2018-11-26T20:22:00.724Z,95.80
2018-11-26T20:24:30.352Z,95.80
2018-11-26T20:26:59.936Z,95.60
2018-11-26T20:29:29.811Z,95.90
2018-11-26T20:31:59.349Z,95.80
2018-11-26T20:34:29.087Z,95.80
2018-11-26T20:36:59.047Z,95.90
2018-11-26T20:39:28.590Z,95.90
2018-11-26T20:44:19.584Z,96.10
2018-11-26T20:46:49.337Z,95.80
2018-11-26T20:49:19.864Z,95.70
2018-11-26T20:51:49.468Z,96.10
2018-11-26T20:54:19.277Z,95.60
2018-11-26T20:56:48.935Z,95.80
2018-11-26T20:59:18.788Z,95.80
2018-11-26T21:01:48.516Z,95.80
2018-11-26T21:04:18.066Z,96.10
2018-11-26T21:06:47.470Z,95.80
2018-11-26T21:09:16.938Z,95.80
2018-11-26T21:11:46.411Z,95.60
2018-11-26T21:14:15.822Z,95.60
2018-11-26T21:16:45.367Z,95.80
2018-11-26T21:19:15.051Z,95.70
2018-11-26T21:21:44.824Z,95.90
2018-11-26T21:24:15.023Z,95.90
2018-11-26T21:26:44.819Z,95.80
2018-11-26T21:29:14.472Z,95.90
2018-11-26T21:31:44.248Z,96.30
2018-11-26T21:34:13.889Z,96.10
2018-11-26T21:36:43.726Z,95.90
2018-11-26T21:39:13.388Z,95.70
2018-11-26T21:41:43.255Z,95.80
2018-11-26T21:44:12.905Z,95.90
2018-11-26T21:46:42.450Z,95.90
2018-11-26T21:49:12.708Z,95.80
2018-11-26T21:51:42.692Z,95.90
2018-11-26T21:54:12.655Z,95.90
2018-11-26T21:56:43.242Z,96.00
2018-11-26T21:59:13.528Z,96.10
2018-11-26T22:01:43.748Z,96.00
2018-11-26T22:04:13.416Z,95.90
2018-11-26T22:06:43.715Z,96.20
2018-11-26T22:09:14.130Z,95.60
2018-11-26T22:11:44.475Z,96.00
2018-11-26T22:14:14.243Z,96.10
2018-11-26T22:16:44.380Z,95.90
2018-11-26T22:19:14.071Z,95.90
2018-11-26T22:21:43.851Z,95.70
2018-11-26T22:24:13.434Z,95.80
2018-11-26T22:26:43.100Z,95.40
2018-11-26T22:29:12.764Z,95.90
2018-11-26T22:31:42.612Z,95.50
2018-11-26T22:34:12.506Z,95.80
2018-11-26T22:36:42.272Z,95.90
2018-11-26T22:39:11.962Z,95.60
2018-11-26T22:41:41.826Z,95.10
2018-11-26T22:44:11.503Z,95.10
2018-11-26T22:46:41.059Z,95.20
2018-11-26T22:49:11.122Z,95.20
2018-11-26T22:51:40.791Z,94.80
2018-11-26T22:54:10.228Z,95.40
2018-11-26T22:56:39.769Z,95.80
2018-11-26T22:59:09.312Z,95.40
2018-11-26T23:01:38.951Z,95.90
2018-11-26T23:04:08.478Z,96.00
2018-11-26T23:06:38.034Z,95.90
2018-11-26T23:09:08.898Z,95.90
2018-11-26T23:11:38.567Z,95.60
2018-11-26T23:14:08.212Z,95.00
2018-11-26T23:16:38.066Z,94.80
2018-11-26T23:19:07.833Z,95.70
2018-11-26T23:21:37.514Z,95.20
2018-11-26T23:24:07.268Z,94.80
2018-11-26T23:26:36.974Z,95.10
2018-11-26T23:29:06.884Z,94.80
2018-11-26T23:31:36.576Z,94.90
2018-11-26T23:34:06.323Z,94.60
2018-11-26T23:36:35.716Z,94.50
2018-11-26T23:39:07.281Z,94.80
2018-11-26T23:41:36.672Z,94.80
2018-11-26T23:44:06.148Z,95.20
2018-11-26T23:46:35.748Z,94.60
2018-11-26T23:49:05.663Z,95.50
2018-11-26T23:51:35.328Z,95.80
2018-11-26T23:54:04.879Z,95.90
2018-11-26T23:56:34.423Z,95.90
2018-11-26T23:59:04.052Z,95.80
